Time;durP1;ratioP1;P1;durP2;ratioP2;P2;SDS_P1;SDS_P2;PMS_P1;PMS_P2;Temp;Humidity;BMP_temperature;BMP_pressure;BME280_temperature;BME280_humidity;BME280_pressure;Samples;Min_cycle;Max_cycle;Signal;HPM_P1;HPM_P2
2022/09/30 00:01:38;;;;;;;4.03;1.95;;;10.20;99.90;;;;;;6220242;23;20020;-90
2022/09/30 00:04:05;;;;;;;3.42;1.70;;;10.20;99.90;;;;;;6195252;23;20008;-89
2022/09/30 00:06:33;;;;;;;4.78;1.80;;;10.20;99.90;;;;;;6194641;23;20027;-89
2022/09/30 00:09:01;;;;;;;3.65;1.40;;;10.20;99.90;;;;;;6194606;23;20464;-89
2022/09/30 00:11:30;;;;;;;3.28;1.73;;;10.20;99.90;;;;;;6194644;23;20024;-89
2022/09/30 00:13:57;;;;;;;4.63;1.90;;;10.10;99.90;;;;;;6195087;23;20437;-89
2022/09/30 00:16:24;;;;;;;4.78;2.03;;;10.10;99.90;;;;;;6194554;23;20012;-88
2022/09/30 00:18:51;;;;;;;3.42;1.45;;;10.10;99.90;;;;;;6194281;23;20023;-89
2022/09/30 00:21:17;;;;;;;4.13;1.70;;;10.10;99.90;;;;;;6194302;23;20434;-89
2022/09/30 00:23:44;;;;;;;5.43;1.55;;;10.10;99.90;;;;;;6194807;23;20023;-89
2022/09/30 00:26:12;;;;;;;3.38;1.48;;;10.10;99.90;;;;;;6194756;23;20098;-88
2022/09/30 00:28:38;;;;;;;3.33;1.58;;;10.10;99.90;;;;;;6194427;23;20023;-89
2022/09/30 00:31:07;;;;;;;3.20;1.67;;;10.10;99.90;;;;;;6194903;23;20513;-89
2022/09/30 00:33:34;;;;;;;4.10;2.08;;;10.10;99.90;;;;;;6194852;23;20020;-89
2022/09/30 00:36:00;;;;;;;4.53;1.65;;;10.10;99.90;;;;;;6219806;23;20024;-89
2022/09/30 00:38:26;;;;;;;4.38;1.92;;;10.00;99.90;;;;;;6194623;23;20020;-89
2022/09/30 00:40:52;;;;;;;3.30;1.55;;;10.00;99.90;;;;;;6194188;23;20027;-89
2022/09/30 00:43:40;;;;;;;3.83;1.90;;;10.00;99.90;;;;;;6194479;23;20012;-89
2022/09/30 00:46:21;;;;;;;3.63;1.55;;;10.00;99.90;;;;;;6194497;23;20016;-89
2022/09/30 00:48:52;;;;;;;3.63;1.55;;;10.00;99.90;;;;;;6194167;23;20027;-89
2022/09/30 00:51:28;;;;;;;4.72;1.58;;;9.90;99.90;;;;;;6194601;23;20086;-89
2022/09/30 00:54:00;;;;;;;3.42;1.70;;;9.90;99.90;;;;;;6194494;23;20345;-89
2022/09/30 00:56:32;;;;;;;3.55;1.52;;;9.90;99.90;;;;;;6194249;23;20022;-89
2022/09/30 00:59:17;;;;;;;4.32;1.33;;;9.80;99.90;;;;;;6194217;23;20012;-88
2022/09/30 01:01:46;;;;;;;3.63;1.50;;;9.80;99.90;;;;;;6194083;23;20106;-89
2022/09/30 01:04:22;;;;;;;4.45;1.58;;;9.80;99.90;;;;;;6194374;23;20012;-89
2022/09/30 01:06:49;;;;;;;2.95;1.27;;;9.80;99.90;;;;;;6194228;23;20039;-89
2022/09/30 01:09:15;;;;;;;3.10;1.50;;;9.80;99.90;;;;;;6204174;22;20552;-89
2022/09/30 01:11:41;;;;;;;2.80;1.33;;;9.80;99.90;;;;;;6224288;22;20020;-89
2022/09/30 01:14:18;;;;;;;3.85;1.48;;;9.80;99.90;;;;;;6224237;22;20310;-89
2022/09/30 01:17:12;;;;;;;2.60;1.15;;;9.70;99.90;;;;;;6224497;22;20073;-89
2022/09/30 01:20:02;;;;;;;3.08;1.27;;;9.70;99.90;;;;;;6224384;22;20464;-90
2022/09/30 01:22:52;;;;;;;3.80;1.30;;;9.70;99.90;;;;;;6249641;22;20012;-89
2022/09/30 01:25:48;;;;;;;3.22;1.33;;;9.70;99.90;;;;;;6249573;22;20102;-89
2022/09/30 01:28:32;;;;;;;2.35;1.10;;;9.70;99.90;;;;;;6250247;22;20050;-89
2022/09/30 01:31:13;;;;;;;2.80;1.00;;;9.70;99.90;;;;;;6226233;22;20015;-90
2022/09/30 01:34:16;;;;;;;2.50;1.20;;;9.70;99.90;;;;;;6226420;22;20015;-89
2022/09/30 01:36:48;;;;;;;3.50;1.33;;;9.60;99.90;;;;;;6226251;22;20019;-89
2022/09/30 01:39:22;;;;;;;3.40;1.40;;;9.60;99.90;;;;;;6226098;22;20023;-89
2022/09/30 01:41:57;;;;;;;3.30;1.02;;;9.60;99.90;;;;;;6226503;22;20011;-89
2022/09/30 01:44:47;;;;;;;2.88;1.17;;;9.60;99.90;;;;;;6229650;22;20020;-87
2022/09/30 01:47:30;;;;;;;3.38;1.33;;;9.70;99.90;;;;;;6243164;22;20063;-89
2022/09/30 01:50:09;;;;;;;3.22;1.38;;;9.60;99.90;;;;;;6232921;22;20089;-89
2022/09/30 01:52:43;;;;;;;3.88;1.20;;;9.70;99.90;;;;;;6226120;22;20094;-88
2022/09/30 01:55:19;;;;;;;2.95;1.15;;;9.60;99.90;;;;;;6226262;22;20020;-89
2022/09/30 01:58:03;;;;;;;3.10;1.20;;;9.60;99.90;;;;;;6226206;22;20094;-88
2022/09/30 02:00:36;;;;;;;2.75;1.00;;;9.50;99.90;;;;;;6225972;22;20056;-88
2022/09/30 02:03:15;;;;;;;2.97;1.33;;;9.50;99.90;;;;;;6226211;22;20015;-89
2022/09/30 02:06:03;;;;;;;2.22;0.98;;;9.50;99.90;;;;;;6225941;22;20008;-89
2022/09/30 02:08:32;;;;;;;2.30;1.00;;;9.40;99.90;;;;;;6225873;22;20054;-89
2022/09/30 02:11:06;;;;;;;3.40;1.20;;;9.40;99.90;;;;;;6226268;22;20386;-88
2022/09/30 02:13:48;;;;;;;2.60;1.10;;;9.40;99.90;;;;;;6225881;22;20012;-89
2022/09/30 02:16:23;;;;;;;3.28;1.17;;;9.30;99.90;;;;;;6225799;22;20468;-89
2022/09/30 02:18:57;;;;;;;2.80;1.10;;;9.30;99.90;;;;;;6225580;22;20203;-89
2022/09/30 02:21:29;;;;;;;2.50;1.10;;;9.30;99.90;;;;;;6226126;22;20026;-89
2022/09/30 02:23:59;;;;;;;2.92;1.10;;;9.30;99.90;;;;;;6225979;22;20020;-89
2022/09/30 02:26:29;;;;;;;3.15;1.00;;;9.30;99.90;;;;;;6225861;22;20019;-88
2022/09/30 02:29:12;;;;;;;3.45;1.33;;;9.20;99.90;;;;;;6225818;22;20098;-89
2022/09/30 02:31:41;;;;;;;3.33;1.50;;;9.20;99.90;;;;;;6225990;22;20015;-89
2022/09/30 02:34:29;;;;;;;2.03;0.90;;;9.20;99.90;;;;;;6225807;22;20449;-89
2022/09/30 02:36:55;;;;;;;;;;;9.20;99.90;;;;;;6226221;22;20015;-88
2022/09/30 02:46:43;;;;;;;2.15;0.98;;;8.90;99.90;;;;;;6042711;23;20027;-89
2022/09/30 02:49:33;;;;;;;2.38;1.00;;;8.80;99.90;;;;;;6095719;23;20021;-87
2022/09/30 02:52:50;;;;;;;;;;;;;;;;;;;;;
2022/09/30 02:59:34;;;;;;;;;;;8.90;99.90;;;;;;6126003;23;20122;-89
2022/09/30 03:02:00;;;;;;;1.25;0.60;;;8.80;99.90;;;;;;6100349;23;19923;-89
2022/09/30 03:24:54;;;;;;;1.73;0.70;;;8.20;99.90;;;;;;6276210;22;20449;-88
2022/09/30 03:27:59;;;;;;;2.30;0.75;;;8.10;99.90;;;;;;6256356;22;20074;-89
2022/09/30 03:30:30;;;;;;;1.80;0.73;;;8.20;99.90;;;;;;6256499;22;20053;-88
2022/09/30 03:33:19;;;;;;;2.28;0.90;;;8.20;99.90;;;;;;6255643;22;20102;-88
2022/09/30 03:35:49;;;;;;;1.30;0.70;;;8.20;99.90;;;;;;6255496;22;20018;-88
2022/09/30 03:38:31;;;;;;;1.70;0.73;;;8.20;99.90;;;;;;6255687;22;20478;-88
2022/09/30 03:41:04;;;;;;;1.27;0.60;;;8.20;99.90;;;;;;6255405;22;20055;-88
2022/09/30 03:43:38;;;;;;;1.15;0.47;;;8.20;99.90;;;;;;6255498;22;20429;-88
2022/09/30 03:46:20;;;;;;;1.77;0.65;;;8.20;99.90;;;;;;6255477;22;20330;-88
2022/09/30 03:48:49;;;;;;;1.73;0.70;;;8.20;99.90;;;;;;6257864;22;20030;-89
2022/09/30 03:51:16;;;;;;;2.35;0.85;;;8.20;99.90;;;;;;6272336;22;20015;-88
2022/09/30 03:53:45;;;;;;;2.35;0.63;;;8.20;99.90;;;;;;6258906;22;20038;-88
2022/09/30 03:56:12;;;;;;;0.52;0.40;;;8.20;99.90;;;;;;6253254;22;20039;-89
2022/09/30 03:58:43;;;;;;;0.68;0.40;;;8.10;99.90;;;;;;6253776;22;20019;-88
2022/09/30 04:01:20;;;;;;;1.23;0.50;;;8.10;99.90;;;;;;6253671;22;20016;-88
2022/09/30 04:03:53;;;;;;;0.98;0.50;;;8.00;99.90;;;;;;6255375;22;20015;-89
2022/09/30 04:06:24;;;;;;;1.58;0.63;;;7.90;99.90;;;;;;6255464;22;20026;-89
2022/09/30 04:09:02;;;;;;;1.27;0.77;;;7.80;99.90;;;;;;6255454;22;20022;-88
2022/09/30 04:11:28;;;;;;;1.77;0.80;;;7.80;99.90;;;;;;6254951;22;20015;-88
2022/09/30 04:13:54;;;;;;;1.52;0.80;;;7.80;99.90;;;;;;6280621;22;20019;-89
2022/09/30 04:16:20;;;;;;;1.50;0.90;;;7.80;99.90;;;;;;6279523;22;20015;-87
2022/09/30 04:18:48;;;;;;;2.47;1.20;;;7.80;99.90;;;;;;6255099;22;20023;-88
2022/09/30 04:21:14;;;;;;;2.63;1.13;;;7.80;99.90;;;;;;6254632;22;20015;-88
2022/09/30 04:24:18;;;;;;;2.40;1.10;;;7.80;99.90;;;;;;6254857;22;20057;-88
2022/09/30 04:27:13;;;;;;;2.38;0.93;;;7.80;99.90;;;;;;6282921;22;20280;-87
2022/09/30 04:29:39;;;;;;;2.55;1.20;;;7.80;99.90;;;;;;6229726;22;20034;-88
2022/09/30 04:32:07;;;;;;;2.53;1.40;;;7.70;99.90;;;;;;6255240;22;20440;-87
2022/09/30 04:34:33;;;;;;;1.67;0.70;;;7.70;99.90;;;;;;6254808;22;20015;-89
2022/09/30 04:37:18;;;;;;;2.10;1.10;;;7.70;99.90;;;;;;6254919;22;20073;-89
2022/09/30 04:39:43;;;;;;;2.67;1.33;;;7.70;99.90;;;;;;6229445;22;20057;-88
2022/09/30 04:42:10;;;;;;;2.60;1.17;;;7.60;99.90;;;;;;6255143;22;20015;-89
2022/09/30 04:44:35;;;;;;;3.05;1.23;;;7.60;99.90;;;;;;6254806;22;20019;-88
2022/09/30 04:47:01;;;;;;;1.83;0.90;;;7.70;99.90;;;;;;6254954;22;20011;-88
2022/09/30 04:49:27;;;;;;;1.45;0.70;;;7.70;99.90;;;;;;6230133;22;20019;-90
2022/09/30 04:51:54;;;;;;;2.00;0.80;;;7.70;99.90;;;;;;6229972;22;20433;-90
2022/09/30 04:54:19;;;;;;;1.85;1.02;;;7.60;99.90;;;;;;6255038;22;20094;-89
2022/09/30 04:56:45;;;;;;;2.40;0.90;;;7.60;99.90;;;;;;6254970;22;20376;-89
2022/09/30 04:59:11;;;;;;;2.00;0.93;;;7.60;99.90;;;;;;6255153;22;20440;-90
2022/09/30 05:01:38;;;;;;;1.27;0.70;;;7.50;99.90;;;;;;6255179;22;20037;-90
2022/09/30 05:04:04;;;;;;;1.38;0.70;;;7.50;99.90;;;;;;6254473;22;20062;-91
2022/09/30 05:06:48;;;;;;;1.60;0.90;;;7.50;99.90;;;;;;6254895;22;20015;-90
2022/09/30 05:09:39;;;;;;;1.63;0.80;;;7.50;99.90;;;;;;6254486;22;20011;-90
2022/09/30 05:12:31;;;;;;;2.47;0.90;;;7.50;99.90;;;;;;6256260;22;20096;-90
2022/09/30 05:17:58;;;;;;;1.60;0.80;;;7.30;99.90;;;;;;6259531;22;20019;-89
2022/09/30 05:20:56;;;;;;;1.50;0.70;;;7.30;99.90;;;;;;6254598;22;20026;-89
2022/09/30 05:27:19;;;;;;;1.65;0.80;;;7.30;99.90;;;;;;6212884;23;20112;-90
2022/09/30 05:29:45;;;;;;;1.92;0.80;;;7.30;99.90;;;;;;6163480;23;20021;-90
2022/09/30 05:32:30;;;;;;;1.55;0.77;;;7.30;99.90;;;;;;6188479;23;20066;-91
2022/09/30 05:35:12;;;;;;;1.63;0.80;;;7.40;99.90;;;;;;6152643;23;20013;-91
2022/09/30 05:37:37;;;;;;;1.42;0.80;;;7.40;99.90;;;;;;6160454;23;20012;-90
2022/09/30 05:40:04;;;;;;;1.57;0.87;;;7.40;99.90;;;;;;6188035;23;20445;-91
2022/09/30 05:42:31;;;;;;;1.77;1.08;;;7.40;99.90;;;;;;6162216;23;20016;-90
2022/09/30 05:44:57;;;;;;;0.93;0.60;;;7.40;99.90;;;;;;6160647;23;20048;-89
2022/09/30 05:47:23;;;;;;;1.23;0.60;;;7.40;99.90;;;;;;6203944;22;20020;-90
2022/09/30 05:49:49;;;;;;;1.92;0.82;;;7.30;99.90;;;;;;6260747;22;20011;-89
2022/09/30 05:52:15;;;;;;;1.17;0.70;;;7.30;99.90;;;;;;6269424;22;20019;-89
2022/09/30 05:54:41;;;;;;;5.47;1.10;;;7.30;99.90;;;;;;6259131;22;20007;-89
2022/09/30 05:57:07;;;;;;;2.00;0.85;;;7.30;99.90;;;;;;6228796;22;20098;-90
2022/09/30 05:59:33;;;;;;;1.50;0.80;;;7.40;99.90;;;;;;6252316;22;20050;-90
2022/09/30 06:01:58;;;;;;;2.07;1.03;;;7.40;99.90;;;;;;6253722;22;20496;-91
2022/09/30 06:04:24;;;;;;;2.20;1.10;;;7.50;99.90;;;;;;6254269;22;20037;-90
2022/09/30 06:06:50;;;;;;;2.30;1.10;;;7.50;99.90;;;;;;6253634;22;20015;-90
2022/09/30 06:09:19;;;;;;;2.33;1.00;;;7.50;99.90;;;;;;6255034;22;20019;-90
2022/09/30 06:11:44;;;;;;;1.40;0.80;;;7.50;99.90;;;;;;6254373;22;20007;-90
2022/09/30 06:14:12;;;;;;;5.80;1.10;;;7.50;99.90;;;;;;6254455;22;20015;-90
2022/09/30 06:16:48;;;;;;;1.77;0.95;;;7.50;99.90;;;;;;6230968;22;20008;-89
2022/09/30 06:19:14;;;;;;;1.75;0.98;;;7.50;99.90;;;;;;6231664;22;20089;-89
2022/09/30 06:21:42;;;;;;;1.83;0.80;;;7.50;99.90;;;;;;6256171;22;20377;-89
2022/09/30 06:24:17;;;;;;;1.20;0.70;;;7.50;99.90;;;;;;6236303;22;20069;-90
2022/09/30 06:26:43;;;;;;;2.03;0.97;;;7.60;99.90;;;;;;6261749;22;20027;-89
2022/09/30 06:29:13;;;;;;;2.30;1.33;;;7.50;99.90;;;;;;6231018;22;20058;-89
2022/09/30 06:31:39;;;;;;;2.67;1.08;;;7.60;99.90;;;;;;6255834;22;20513;-89
2022/09/30 06:34:05;;;;;;;2.60;1.10;;;7.60;99.90;;;;;;6255898;22;20098;-89
2022/09/30 06:40:24;;;;;;;1.95;0.90;;;7.70;99.90;;;;;;6244892;22;20026;-89
2022/09/30 06:43:13;;;;;;;1.85;1.10;;;7.70;99.90;;;;;;6233584;22;20019;-92
2022/09/30 06:45:39;;;;;;;2.35;1.02;;;7.70;99.90;;;;;;6205841;22;20050;-90
2022/09/30 07:03:46;;;;;;;3.15;1.30;;;8.30;99.90;;;;;;6276600;22;20023;-88
2022/09/30 07:06:32;;;;;;;;;;;;;;;;;;;;;
2022/09/30 07:08:58;;;;;;;3.88;1.80;;;8.30;99.90;;;;;;6206063;22;20022;-89
2022/09/30 07:11:45;;;;;;;4.10;1.93;;;8.30;99.90;;;;;;6200225;22;20019;-89
2022/09/30 07:14:16;;;;;;;4.47;2.10;;;8.40;99.90;;;;;;6201882;22;20449;-89
2022/09/30 07:16:45;;;;;;;4.20;2.10;;;8.50;99.90;;;;;;6224816;22;20023;-89
2022/09/30 07:19:19;;;;;;;4.37;2.37;;;8.60;99.90;;;;;;6225295;22;20337;-89
2022/09/30 07:22:29;;;;;;;4.90;2.13;;;8.60;99.90;;;;;;6226735;22;20091;-90
2022/09/30 07:25:05;;;;;;;5.25;2.28;;;8.70;99.90;;;;;;6225616;22;20019;-89
2022/09/30 07:27:32;;;;;;;4.47;1.80;;;8.80;99.90;;;;;;6200647;22;20498;-90
2022/09/30 07:29:59;;;;;;;4.43;2.13;;;8.90;99.90;;;;;;6225440;22;20019;-89
2022/09/30 07:32:25;;;;;;;5.85;2.20;;;9.00;99.90;;;;;;6176136;22;20007;-89
2022/09/30 07:34:51;;;;;;;5.25;2.47;;;9.10;99.90;;;;;;6225441;22;20019;-90
2022/09/30 07:37:18;;;;;;;4.50;2.30;;;9.20;99.90;;;;;;6200705;22;20061;-90
2022/09/30 07:39:46;;;;;;;4.15;1.92;;;9.30;99.90;;;;;;6225224;22;20015;-89
2022/09/30 07:42:19;;;;;;;5.35;2.80;;;9.40;99.90;;;;;;6225743;22;20071;-89
2022/09/30 07:44:46;;;;;;;5.32;2.35;;;9.40;99.90;;;;;;6225359;22;20012;-89
2022/09/30 07:47:13;;;;;;;4.55;1.85;;;9.50;99.90;;;;;;6226068;22;20070;-90
2022/09/30 07:49:40;;;;;;;4.60;1.90;;;9.60;99.90;;;;;;6206039;22;20068;-88
2022/09/30 07:52:06;;;;;;;;;;;9.70;99.90;;;;;;6242999;22;20016;-89
2022/09/30 07:54:33;;;;;;;5.30;1.95;;;9.80;99.90;;;;;;6207607;22;19918;-88
2022/09/30 07:56:59;;;;;;;;;;;9.80;99.90;;;;;;6225618;22;20011;-89
2022/09/30 07:59:27;;;;;;;4.30;1.95;;;9.90;99.90;;;;;;6225090;22;19922;-89
2022/09/30 08:01:53;;;;;;;4.35;1.80;;;10.00;99.90;;;;;;6225274;22;20098;-89
2022/09/30 08:04:21;;;;;;;4.13;1.60;;;10.10;99.90;;;;;;6224953;22;20016;-89
2022/09/30 08:06:56;;;;;;;3.90;1.50;;;10.10;99.90;;;;;;6200349;22;20030;-90
2022/09/30 08:09:25;;;;;;;4.03;1.75;;;10.20;99.90;;;;;;6224987;22;20027;-90
2022/09/30 08:11:51;;;;;;;3.80;1.70;;;10.20;99.90;;;;;;6225092;22;20016;-90
2022/09/30 08:14:22;;;;;;;4.22;1.50;;;10.30;99.90;;;;;;6224801;22;20023;-91
2022/09/30 08:16:48;;;;;;;4.53;1.65;;;10.30;99.90;;;;;;6225234;22;20022;-90
2022/09/30 08:19:17;;;;;;;2.97;1.25;;;10.40;99.90;;;;;;6224929;22;20449;-90
2022/09/30 08:21:44;;;;;;;3.15;1.58;;;10.40;99.90;;;;;;6225290;22;20019;-91
2022/09/30 08:24:10;;;;;;;3.58;1.38;;;10.50;99.90;;;;;;6225560;22;20016;-89
2022/09/30 08:26:36;;;;;;;3.72;1.60;;;10.50;99.90;;;;;;6238066;22;20027;-91
2022/09/30 08:29:02;;;;;;;3.42;1.52;;;10.60;99.90;;;;;;6202468;22;20341;-90
2022/09/30 08:31:28;;;;;;;3.60;1.60;;;10.60;99.90;;;;;;6225162;22;20029;-91
2022/09/30 08:33:54;;;;;;;3.45;1.38;;;10.70;99.90;;;;;;6200177;22;20012;-90
2022/09/30 08:36:24;;;;;;;3.20;1.40;;;10.70;99.90;;;;;;6225081;22;20031;-90
2022/09/30 08:38:50;;;;;;;4.63;1.67;;;10.70;99.90;;;;;;6224721;22;20016;-90
2022/09/30 08:41:26;;;;;;;3.35;1.70;;;10.80;99.90;;;;;;6224819;22;20019;-92
2022/09/30 08:44:29;;;;;;;4.18;1.65;;;10.80;99.90;;;;;;6224865;22;20082;-90
2022/09/30 08:46:58;;;;;;;3.08;1.10;;;10.90;99.90;;;;;;6249911;22;20026;-92
2022/09/30 08:49:43;;;;;;;3.33;1.58;;;10.90;99.90;;;;;;6224536;22;20141;-90
2022/09/30 08:52:41;;;;;;;4.40;1.20;;;11.00;99.90;;;;;;6224807;22;20078;-90
2022/09/30 08:55:15;;;;;;;3.57;1.40;;;11.00;99.90;;;;;;6200946;22;20039;-90
2022/09/30 08:57:43;;;;;;;3.22;1.40;;;11.00;99.90;;;;;;6224476;22;20043;-89
2022/09/30 09:00:15;;;;;;;4.22;1.83;;;11.10;99.90;;;;;;6224310;22;20345;-90
2022/09/30 09:02:57;;;;;;;3.45;1.55;;;11.20;99.90;;;;;;6199367;22;20019;-90
2022/09/30 09:05:47;;;;;;;3.33;1.33;;;11.20;99.90;;;;;;6224457;22;20019;-91
2022/09/30 09:08:48;;;;;;;4.15;1.48;;;11.30;99.90;;;;;;6277038;22;20689;-93
2022/09/30 09:11:17;;;;;;;4.35;1.85;;;11.30;99.90;;;;;;6220563;22;20081;-93
2022/09/30 09:13:51;;;;;;;3.65;1.55;;;11.40;99.90;;;;;;6224898;22;20038;-93
2022/09/30 09:16:54;;;;;;;3.72;1.10;;;11.50;99.90;;;;;;6224551;22;20425;-90
2022/09/30 09:19:24;;;;;;;4.28;1.48;;;11.60;99.90;;;;;;6224370;22;20095;-91
2022/09/30 09:21:56;;;;;;;3.97;1.35;;;11.60;99.90;;;;;;6224670;22;20016;-91
2022/09/30 09:24:29;;;;;;;2.85;1.10;;;11.70;99.90;;;;;;6224645;22;20191;-91
2022/09/30 09:26:57;;;;;;;2.95;1.02;;;11.80;99.90;;;;;;6224554;22;20016;-92
2022/09/30 09:29:43;;;;;;;3.17;1.27;;;11.80;99.90;;;;;;6224762;22;20473;-91
2022/09/30 09:32:16;;;;;;;2.50;1.02;;;11.90;99.90;;;;;;6224861;22;20020;-91
2022/09/30 09:34:45;;;;;;;2.38;0.95;;;12.00;99.90;;;;;;6224785;22;20169;-93
2022/09/30 09:37:21;;;;;;;2.80;0.90;;;12.00;99.90;;;;;;6224832;22;20460;-91
2022/09/30 09:40:07;;;;;;;3.92;0.95;;;12.10;99.90;;;;;;6224705;22;20488;-92
2022/09/30 09:42:51;;;;;;;2.58;1.00;;;12.20;99.90;;;;;;6224343;22;20105;-91
2022/09/30 09:45:56;;;;;;;3.72;1.17;;;12.40;99.90;;;;;;6224920;22;20468;-92
2022/09/30 09:48:22;;;;;;;2.22;0.90;;;12.50;99.90;;;;;;6128270;22;20098;-93
2022/09/30 09:51:30;;;;;;;3.53;1.07;;;12.60;99.90;;;;;;6202509;22;20043;-93
2022/09/30 09:54:03;;;;;;;2.63;0.98;;;12.70;99.90;;;;;;6237427;22;20018;-89
2022/09/30 09:56:32;;;;;;;1.98;0.70;;;12.80;99.90;;;;;;6252805;22;20024;-89
2022/09/30 09:59:07;;;;;;;2.00;0.60;;;13.00;99.90;;;;;;6251490;22;20018;-91
2022/09/30 10:01:36;;;;;;;2.08;0.60;;;13.10;99.90;;;;;;6226914;22;20512;-93
2022/09/30 10:04:24;;;;;;;1.67;0.68;;;13.20;99.90;;;;;;6227044;22;20016;-92
2022/09/30 10:06:53;;;;;;;1.70;0.57;;;13.30;99.90;;;;;;6226294;22;20020;-93
2022/09/30 10:09:30;;;;;;;2.85;0.90;;;13.40;99.90;;;;;;6226736;22;20022;-94
2022/09/30 10:12:05;;;;;;;1.65;0.68;;;13.50;99.90;;;;;;6226595;22;20099;-92
2022/09/30 10:15:13;;;;;;;1.83;0.73;;;13.70;99.90;;;;;;6226655;22;20016;-96
2022/09/30 10:18:07;;;;;;;2.67;0.90;;;13.70;99.90;;;;;;6213999;22;20089;-95
2022/09/30 10:20:50;;;;;;;2.33;0.80;;;13.80;99.90;;;;;;6226943;22;20031;-93
2022/09/30 10:23:48;;;;;;;2.03;0.68;;;13.90;99.90;;;;;;6226680;22;20023;-93
2022/09/30 10:26:14;;;;;;;;;;;14.00;99.90;;;;;;6206577;22;20023;-94
2022/09/30 10:29:02;;;;;;;2.22;0.98;;;14.10;99.90;;;;;;6246594;22;19915;-90
2022/09/30 10:31:39;;;;;;;1.17;0.40;;;14.20;99.90;;;;;;6241364;22;20016;-95
2022/09/30 10:34:10;;;;;;;1.88;0.80;;;14.30;99.90;;;;;;6226389;22;20107;-93
2022/09/30 10:36:39;;;;;;;2.42;0.80;;;14.40;99.90;;;;;;6225796;22;20015;-92
2022/09/30 10:39:14;;;;;;;0.43;0.30;;;14.40;99.90;;;;;;6224676;22;20445;-93
2022/09/30 10:41:40;;;;;;;1.05;0.60;;;14.50;99.90;;;;;;6224375;22;20463;-93
2022/09/30 10:44:14;;;;;;;2.40;0.82;;;14.60;99.90;;;;;;6198920;22;20007;-93
2022/09/30 10:46:43;;;;;;;1.17;0.60;;;14.70;99.90;;;;;;6224549;22;20011;-93
2022/09/30 10:49:38;;;;;;;1.70;0.70;;;14.80;99.90;;;;;;6225728;22;20016;-91
2022/09/30 10:52:05;;;;;;;1.98;0.80;;;14.80;99.90;;;;;;6226202;22;20016;-93
2022/09/30 10:54:48;;;;;;;1.85;0.68;;;14.90;99.90;;;;;;6201332;22;20020;-91
2022/09/30 10:57:25;;;;;;;2.10;0.90;;;15.00;99.90;;;;;;6226129;22;20012;-90
2022/09/30 11:00:05;;;;;;;2.38;0.90;;;15.00;99.90;;;;;;6226616;22;20027;-90
2022/09/30 11:03:06;;;;;;;;;;;15.10;99.90;;;;;;6225976;22;20016;-90
2022/09/30 11:05:50;;;;;;;3.63;1.60;;;15.20;99.90;;;;;;6225801;22;19915;-90
2022/09/30 11:08:59;;;;;;;3.85;1.75;;;15.30;99.90;;;;;;6225882;22;20028;-91
2022/09/30 11:17:05;;;;;;;3.33;1.42;;;15.50;99.90;;;;;;6277967;22;20468;-92
2022/09/30 11:20:42;;;;;;;2.88;1.17;;;15.50;99.90;;;;;;6225243;22;20011;-91
2022/09/30 11:23:31;;;;;;;2.85;1.20;;;15.40;99.90;;;;;;6249909;22;20015;-92
2022/09/30 11:26:51;;;;;;;2.72;1.00;;;15.40;99.90;;;;;;6225657;22;20039;-91
2022/09/30 11:29:41;;;;;;;3.42;1.30;;;15.60;99.90;;;;;;6105769;23;20359;-93
2022/09/30 11:32:44;;;;;;;2.50;0.93;;;15.70;99.90;;;;;;6225539;22;20434;-91
2022/09/30 11:35:41;;;;;;;2.42;0.90;;;15.70;99.90;;;;;;6224808;22;20022;-91
2022/09/30 11:38:35;;;;;;;1.45;0.68;;;15.70;99.90;;;;;;6225222;22;20403;-90
2022/09/30 11:41:12;;;;;;;2.40;0.80;;;15.70;99.90;;;;;;6223376;22;20015;-90
2022/09/30 11:44:10;;;;;;;1.80;0.80;;;15.70;99.90;;;;;;6224278;22;20011;-89
2022/09/30 11:46:44;;;;;;;1.45;0.60;;;15.80;99.90;;;;;;6202144;22;20027;-92
2022/09/30 11:49:36;;;;;;;1.10;0.50;;;15.90;99.90;;;;;;6226216;22;20024;-96
2022/09/30 11:52:24;;;;;;;1.95;0.80;;;16.00;99.90;;;;;;6170579;22;20012;-92
2022/09/30 12:13:05;;;;;;;1.65;0.70;;;16.20;99.90;;;;;;6277353;22;20071;-89
2022/09/30 12:15:32;;;;;;;1.40;0.55;;;16.10;99.90;;;;;;6225151;22;20030;-89
2022/09/30 12:18:24;;;;;;;2.42;0.70;;;16.10;99.90;;;;;;6200157;22;20462;-90
2022/09/30 12:21:09;;;;;;;2.30;0.57;;;16.20;99.90;;;;;;6212753;22;20109;-91
2022/09/30 12:23:42;;;;;;;1.20;0.40;;;16.30;99.90;;;;;;6224613;22;20433;-92
2022/09/30 12:26:11;;;;;;;0.98;0.30;;;16.20;99.90;;;;;;6225242;22;20020;-90
2022/09/30 12:32:02;;;;;;;1.00;0.45;;;16.10;99.90;;;;;;6257415;22;20095;-89
2022/09/30 12:35:06;;;;;;;1.45;0.50;;;16.10;99.90;;;;;;6241928;22;20012;-90
2022/09/30 12:38:06;;;;;;;1.65;0.50;;;16.20;99.90;;;;;;6226207;22;20099;-91
2022/09/30 12:40:50;;;;;;;1.35;0.40;;;16.20;99.90;;;;;;6225440;22;20020;-94
2022/09/30 12:43:54;;;;;;;0.73;0.28;;;16.20;99.90;;;;;;6224969;22;20019;-90
2022/09/30 12:46:38;;;;;;;1.63;0.40;;;16.30;99.90;;;;;;6225006;22;20078;-90
2022/09/30 12:49:09;;;;;;;0.50;0.30;;;16.30;99.90;;;;;;6224469;22;20011;-89
2022/09/30 12:51:40;;;;;;;0.77;0.30;;;16.30;99.90;;;;;;6224453;22;20407;-89
2022/09/30 12:54:15;;;;;;;0.57;0.30;;;16.30;99.90;;;;;;6200340;22;20433;-90
2022/09/30 12:56:43;;;;;;;2.38;0.40;;;16.20;99.90;;;;;;6225102;22;20023;-89
2022/09/30 12:59:11;;;;;;;1.10;0.35;;;16.10;99.90;;;;;;6224890;22;20051;-89
2022/09/30 13:01:38;;;;;;;0.32;0.20;;;16.00;99.90;;;;;;6200035;22;20023;-90
2022/09/30 13:04:04;;;;;;;0.20;0.13;;;15.90;99.90;;;;;;6224700;22;20023;-89
2022/09/30 13:06:56;;;;;;;0.55;0.30;;;16.00;99.90;;;;;;6225163;22;20016;-88
2022/09/30 13:09:33;;;;;;;0.98;0.30;;;16.00;99.90;;;;;;6214299;22;20012;-90
2022/09/30 13:11:59;;;;;;;1.85;0.40;;;16.10;99.90;;;;;;6224646;22;20020;-89
2022/09/30 13:14:38;;;;;;;0.38;0.30;;;16.10;99.90;;;;;;6225008;22;20028;-90
2022/09/30 13:17:06;;;;;;;0.93;0.32;;;16.20;99.90;;;;;;6200852;22;20026;-90
2022/09/30 13:19:35;;;;;;;0.52;0.30;;;16.20;99.90;;;;;;6224796;22;20016;-90
2022/09/30 13:22:28;;;;;;;0.40;0.20;;;16.10;99.90;;;;;;6224746;22;20095;-91
2022/09/30 13:24:56;;;;;;;0.57;0.30;;;16.10;99.90;;;;;;6225931;22;20020;-88
2022/09/30 13:27:34;;;;;;;0.45;0.20;;;16.20;99.90;;;;;;6251729;22;20016;-89
2022/09/30 13:30:20;;;;;;;0.60;0.32;;;16.20;99.90;;;;;;6226733;22;20026;-89
2022/09/30 13:33:01;;;;;;;0.70;0.30;;;16.20;99.90;;;;;;6226736;22;20051;-90
2022/09/30 13:35:45;;;;;;;1.20;0.47;;;16.20;99.90;;;;;;6251978;22;20027;-89
2022/09/30 13:38:13;;;;;;;1.02;0.38;;;16.20;99.90;;;;;;6226854;22;20023;-89
2022/09/30 13:40:55;;;;;;;1.45;0.40;;;16.30;99.90;;;;;;6251615;22;20020;-89
2022/09/30 13:43:37;;;;;;;1.13;0.50;;;16.30;99.90;;;;;;6226325;22;20012;-89
2022/09/30 13:46:48;;;;;;;1.25;0.50;;;16.40;99.90;;;;;;6226417;22;20015;-92
2022/09/30 13:49:55;;;;;;;2.05;0.70;;;16.30;99.90;;;;;;6216576;22;20019;-91
2022/09/30 13:52:28;;;;;;;1.38;0.52;;;16.10;99.90;;;;;;6226340;22;20019;-91
2022/09/30 13:54:57;;;;;;;2.10;1.10;;;16.00;99.90;;;;;;6226595;22;20016;-90
2022/09/30 13:57:35;;;;;;;2.22;1.00;;;15.80;99.90;;;;;;6226296;22;20023;-88
2022/09/30 14:00:10;;;;;;;1.95;0.90;;;15.80;99.90;;;;;;6226211;22;20016;-90
2022/09/30 14:03:02;;;;;;;2.42;1.20;;;15.80;99.90;;;;;;6226059;22;20099;-90
2022/09/30 14:05:41;;;;;;;1.95;1.00;;;15.80;99.90;;;;;;6227028;22;20020;-90
2022/09/30 14:08:25;;;;;;;3.22;1.35;;;15.80;99.90;;;;;;6225998;22;20018;-92
2022/09/30 14:11:15;;;;;;;3.92;1.40;;;15.80;99.90;;;;;;6224035;22;20047;-91
2022/09/30 14:13:56;;;;;;;3.10;1.35;;;15.80;99.90;;;;;;6224449;22;20128;-92
2022/09/30 14:16:37;;;;;;;4.40;1.70;;;15.80;99.90;;;;;;6250075;22;20017;-91
2022/09/30 14:19:24;;;;;;;3.42;1.42;;;15.80;99.90;;;;;;6226196;22;20337;-91
2022/09/30 14:21:53;;;;;;;3.97;1.90;;;15.80;99.90;;;;;;6226137;22;20019;-91
2022/09/30 14:24:23;;;;;;;3.40;1.30;;;15.90;99.90;;;;;;6226413;22;20068;-91
2022/09/30 14:27:25;;;;;;;2.83;1.30;;;15.90;99.90;;;;;;6226427;22;20011;-91
2022/09/30 14:30:03;;;;;;;2.95;1.40;;;15.90;99.90;;;;;;6226363;22;20020;-91
2022/09/30 14:32:54;;;;;;;2.72;1.50;;;15.90;99.90;;;;;;6226518;22;20016;-93
2022/09/30 14:35:34;;;;;;;3.50;1.60;;;15.90;99.90;;;;;;6237670;22;20016;-92
2022/09/30 14:38:15;;;;;;;2.95;1.30;;;15.80;99.90;;;;;;6243422;22;20023;-89
2022/09/30 14:40:49;;;;;;;3.67;1.67;;;15.80;99.90;;;;;;6234584;22;20051;-91
2022/09/30 14:43:19;;;;;;;3.55;1.42;;;15.70;99.90;;;;;;6226205;22;20019;-92
2022/09/30 14:45:50;;;;;;;4.25;2.13;;;15.60;99.90;;;;;;6225809;22;20120;-91
2022/09/30 14:48:21;;;;;;;4.30;2.10;;;15.60;99.90;;;;;;6226099;22;20016;-93
2022/09/30 14:51:03;;;;;;;4.30;1.63;;;15.50;99.90;;;;;;6226183;22;20400;-93
2022/09/30 14:53:31;;;;;;;4.53;2.20;;;15.50;99.90;;;;;;6251233;22;20023;-92
2022/09/30 14:55:59;;;;;;;4.53;2.35;;;15.40;99.90;;;;;;6225991;22;20055;-91
2022/09/30 14:58:41;;;;;;;3.90;2.10;;;15.30;99.90;;;;;;6225933;22;20027;-92
2022/09/30 15:01:16;;;;;;;6.07;2.42;;;15.30;99.90;;;;;;6225756;22;20015;-91
2022/09/30 15:04:05;;;;;;;4.93;2.08;;;15.30;99.90;;;;;;6226029;22;20018;-95
2022/09/30 15:06:34;;;;;;;4.68;2.55;;;15.30;99.90;;;;;;6226375;22;20400;-92
2022/09/30 15:09:56;;;;;;;;;;;;;;;;;;;;;